sensor_id;sensor_type;location;lat;lon;timestamp;P1;durP1;ratioP1;P2;durP2;ratioP2
4186;SDS011;2107;52.306;10.484;2022-09-30T00:01:51;0.00;;;0.00;;
4186;SDS011;2107;52.306;10.484;2022-09-30T00:04:19;0.00;;;0.00;;
4186;SDS011;2107;52.306;10.484;2022-09-30T00:06:47;0.00;;;0.00;;
4186;SDS011;2107;52.306;10.484;2022-09-30T00:09:15;0.00;;;0.00;;
4186;SDS011;2107;52.306;10.484;2022-09-30T00:11:44;0.00;;;0.00;;
4186;SDS011;2107;52.306;10.484;2022-09-30T00:14:12;0.00;;;0.00;;
4186;SDS011;2107;52.306;10.484;2022-09-30T00:16:41;0.00;;;0.00;;
4186;SDS011;2107;52.306;10.484;2022-09-30T00:19:08;0.00;;;0.00;;
4186;SDS011;2107;52.306;10.484;2022-09-30T00:21:36;0.00;;;0.00;;
4186;SDS011;2107;52.306;10.484;2022-09-30T00:24:03;0.00;;;0.00;;
4186;SDS011;2107;52.306;10.484;2022-09-30T00:26:31;0.00;;;0.00;;
4186;SDS011;2107;52.306;10.484;2022-09-30T00:29:00;0.00;;;0.00;;
4186;SDS011;2107;52.306;10.484;2022-09-30T00:31:29;0.00;;;0.00;;
4186;SDS011;2107;52.306;10.484;2022-09-30T00:33:57;0.00;;;0.00;;
4186;SDS011;2107;52.306;10.484;2022-09-30T00:36:36;0.00;;;0.00;;
4186;SDS011;2107;52.306;10.484;2022-09-30T00:39:08;0.00;;;0.00;;
4186;SDS011;2107;52.306;10.484;2022-09-30T00:41:36;0.00;;;0.00;;
4186;SDS011;2107;52.306;10.484;2022-09-30T00:47:05;0.00;;;0.00;;
4186;SDS011;2107;52.306;10.484;2022-09-30T00:49:46;0.00;;;0.00;;
4186;SDS011;2107;52.306;10.484;2022-09-30T00:52:13;0.00;;;0.00;;
4186;SDS011;2107;52.306;10.484;2022-09-30T00:54:40;0.00;;;0.00;;
4186;SDS011;2107;52.306;10.484;2022-09-30T00:57:08;0.00;;;0.00;;
4186;SDS011;2107;52.306;10.484;2022-09-30T00:59:37;0.00;;;0.00;;
4186;SDS011;2107;52.306;10.484;2022-09-30T01:02:08;0.00;;;0.00;;
4186;SDS011;2107;52.306;10.484;2022-09-30T01:04:35;0.00;;;0.00;;
4186;SDS011;2107;52.306;10.484;2022-09-30T01:07:04;0.00;;;0.00;;
4186;SDS011;2107;52.306;10.484;2022-09-30T01:09:32;0.00;;;0.00;;
4186;SDS011;2107;52.306;10.484;2022-09-30T01:12:02;0.00;;;0.00;;
4186;SDS011;2107;52.306;10.484;2022-09-30T01:14:30;0.00;;;0.00;;
4186;SDS011;2107;52.306;10.484;2022-09-30T01:16:58;0.00;;;0.00;;
4186;SDS011;2107;52.306;10.484;2022-09-30T01:22:37;0.00;;;0.00;;
4186;SDS011;2107;52.306;10.484;2022-09-30T01:25:17;0.00;;;0.00;;
4186;SDS011;2107;52.306;10.484;2022-09-30T01:28:25;0.00;;;0.00;;
4186;SDS011;2107;52.306;10.484;2022-09-30T01:31:20;0.00;;;0.00;;
4186;SDS011;2107;52.306;10.484;2022-09-30T01:33:58;0.00;;;0.00;;
4186;SDS011;2107;52.306;10.484;2022-09-30T01:36:34;0.00;;;0.00;;
4186;SDS011;2107;52.306;10.484;2022-09-30T01:39:11;0.00;;;0.00;;
4186;SDS011;2107;52.306;10.484;2022-09-30T01:41:50;0.00;;;0.00;;
4186;SDS011;2107;52.306;10.484;2022-09-30T01:44:22;0.00;;;0.00;;
4186;SDS011;2107;52.306;10.484;2022-09-30T01:47:00;0.00;;;0.00;;
4186;SDS011;2107;52.306;10.484;2022-09-30T01:49:35;0.00;;;0.00;;
4186;SDS011;2107;52.306;10.484;2022-09-30T01:52:08;0.00;;;0.00;;
4186;SDS011;2107;52.306;10.484;2022-09-30T01:54:39;0.00;;;0.00;;
4186;SDS011;2107;52.306;10.484;2022-09-30T01:57:12;0.00;;;0.00;;
4186;SDS011;2107;52.306;10.484;2022-09-30T01:59:45;0.00;;;0.00;;
4186;SDS011;2107;52.306;10.484;2022-09-30T02:02:17;0.00;;;0.00;;
4186;SDS011;2107;52.306;10.484;2022-09-30T02:04:50;0.00;;;0.00;;
4186;SDS011;2107;52.306;10.484;2022-09-30T02:07:22;0.00;;;0.00;;
4186;SDS011;2107;52.306;10.484;2022-09-30T02:09:54;0.00;;;0.00;;
4186;SDS011;2107;52.306;10.484;2022-09-30T02:12:25;0.00;;;0.00;;
4186;SDS011;2107;52.306;10.484;2022-09-30T02:14:58;0.00;;;0.00;;
4186;SDS011;2107;52.306;10.484;2022-09-30T02:17:32;0.00;;;0.00;;
4186;SDS011;2107;52.306;10.484;2022-09-30T02:20:06;0.00;;;0.00;;
4186;SDS011;2107;52.306;10.484;2022-09-30T02:22:39;0.00;;;0.00;;
4186;SDS011;2107;52.306;10.484;2022-09-30T02:25:10;0.00;;;0.00;;
4186;SDS011;2107;52.306;10.484;2022-09-30T02:27:45;0.00;;;0.00;;
4186;SDS011;2107;52.306;10.484;2022-09-30T02:30:16;0.00;;;0.00;;
4186;SDS011;2107;52.306;10.484;2022-09-30T02:32:47;0.00;;;0.00;;
4186;SDS011;2107;52.306;10.484;2022-09-30T02:35:16;0.00;;;0.00;;
4186;SDS011;2107;52.306;10.484;2022-09-30T02:37:47;0.00;;;0.00;;
4186;SDS011;2107;52.306;10.484;2022-09-30T02:40:19;0.00;;;0.00;;
4186;SDS011;2107;52.306;10.484;2022-09-30T02:42:50;0.00;;;0.00;;
4186;SDS011;2107;52.306;10.484;2022-09-30T02:45:18;0.00;;;0.00;;
4186;SDS011;2107;52.306;10.484;2022-09-30T02:47:53;0.00;;;0.00;;
4186;SDS011;2107;52.306;10.484;2022-09-30T02:50:29;0.00;;;0.00;;
4186;SDS011;2107;52.306;10.484;2022-09-30T02:53:01;0.00;;;0.00;;
4186;SDS011;2107;52.306;10.484;2022-09-30T02:55:43;0.00;;;0.00;;
4186;SDS011;2107;52.306;10.484;2022-09-30T02:58:25;0.00;;;0.00;;
4186;SDS011;2107;52.306;10.484;2022-09-30T03:00:53;0.00;;;0.00;;
4186;SDS011;2107;52.306;10.484;2022-09-30T03:03:22;0.00;;;0.00;;
4186;SDS011;2107;52.306;10.484;2022-09-30T03:05:52;0.00;;;0.00;;
4186;SDS011;2107;52.306;10.484;2022-09-30T03:08:19;0.00;;;0.00;;
4186;SDS011;2107;52.306;10.484;2022-09-30T03:10:47;0.00;;;0.00;;
4186;SDS011;2107;52.306;10.484;2022-09-30T03:13:23;0.00;;;0.00;;
4186;SDS011;2107;52.306;10.484;2022-09-30T03:16:09;0.00;;;0.00;;
4186;SDS011;2107;52.306;10.484;2022-09-30T03:18:51;0.00;;;0.00;;
4186;SDS011;2107;52.306;10.484;2022-09-30T03:21:42;0.00;;;0.00;;
4186;SDS011;2107;52.306;10.484;2022-09-30T03:24:32;0.00;;;0.00;;
4186;SDS011;2107;52.306;10.484;2022-09-30T03:27:19;0.00;;;0.00;;
4186;SDS011;2107;52.306;10.484;2022-09-30T03:29:58;0.00;;;0.00;;
4186;SDS011;2107;52.306;10.484;2022-09-30T03:35:20;0.00;;;0.00;;
4186;SDS011;2107;52.306;10.484;2022-09-30T03:37:57;0.00;;;0.00;;
4186;SDS011;2107;52.306;10.484;2022-09-30T03:40:29;0.00;;;0.00;;
4186;SDS011;2107;52.306;10.484;2022-09-30T03:43:04;0.00;;;0.00;;
4186;SDS011;2107;52.306;10.484;2022-09-30T03:45:37;0.00;;;0.00;;
4186;SDS011;2107;52.306;10.484;2022-09-30T03:48:11;0.00;;;0.00;;
4186;SDS011;2107;52.306;10.484;2022-09-30T03:50:41;0.00;;;0.00;;
4186;SDS011;2107;52.306;10.484;2022-09-30T03:53:09;0.00;;;0.00;;
4186;SDS011;2107;52.306;10.484;2022-09-30T03:55:44;0.00;;;0.00;;
4186;SDS011;2107;52.306;10.484;2022-09-30T03:58:15;0.00;;;0.00;;
4186;SDS011;2107;52.306;10.484;2022-09-30T04:00:45;0.00;;;0.00;;
4186;SDS011;2107;52.306;10.484;2022-09-30T04:03:14;0.00;;;0.00;;
4186;SDS011;2107;52.306;10.484;2022-09-30T04:05:43;0.00;;;0.00;;
4186;SDS011;2107;52.306;10.484;2022-09-30T04:08:11;0.00;;;0.00;;
4186;SDS011;2107;52.306;10.484;2022-09-30T04:10:38;0.00;;;0.00;;
4186;SDS011;2107;52.306;10.484;2022-09-30T04:13:06;0.00;;;0.00;;
4186;SDS011;2107;52.306;10.484;2022-09-30T04:15:33;0.00;;;0.00;;
4186;SDS011;2107;52.306;10.484;2022-09-30T04:18:00;0.00;;;0.00;;
4186;SDS011;2107;52.306;10.484;2022-09-30T04:20:28;0.00;;;0.00;;
4186;SDS011;2107;52.306;10.484;2022-09-30T04:22:57;0.00;;;0.00;;
4186;SDS011;2107;52.306;10.484;2022-09-30T04:25:24;0.00;;;0.00;;
4186;SDS011;2107;52.306;10.484;2022-09-30T04:27:51;0.00;;;0.00;;
4186;SDS011;2107;52.306;10.484;2022-09-30T04:30:18;0.00;;;0.00;;
4186;SDS011;2107;52.306;10.484;2022-09-30T04:32:45;0.00;;;0.00;;
4186;SDS011;2107;52.306;10.484;2022-09-30T04:35:12;0.00;;;0.00;;
4186;SDS011;2107;52.306;10.484;2022-09-30T04:37:40;0.00;;;0.00;;
4186;SDS011;2107;52.306;10.484;2022-09-30T04:40:10;0.00;;;0.00;;
4186;SDS011;2107;52.306;10.484;2022-09-30T04:42:38;0.00;;;0.00;;
4186;SDS011;2107;52.306;10.484;2022-09-30T04:45:07;0.00;;;0.00;;
4186;SDS011;2107;52.306;10.484;2022-09-30T04:47:35;0.00;;;0.00;;
4186;SDS011;2107;52.306;10.484;2022-09-30T04:50:02;0.00;;;0.00;;
4186;SDS011;2107;52.306;10.484;2022-09-30T04:52:29;0.00;;;0.00;;
4186;SDS011;2107;52.306;10.484;2022-09-30T04:54:56;0.00;;;0.00;;
4186;SDS011;2107;52.306;10.484;2022-09-30T04:57:25;0.00;;;0.00;;
4186;SDS011;2107;52.306;10.484;2022-09-30T04:59:52;0.00;;;0.00;;
4186;SDS011;2107;52.306;10.484;2022-09-30T05:02:19;0.00;;;0.00;;
4186;SDS011;2107;52.306;10.484;2022-09-30T05:04:46;0.00;;;0.00;;
4186;SDS011;2107;52.306;10.484;2022-09-30T05:07:13;0.00;;;0.00;;
4186;SDS011;2107;52.306;10.484;2022-09-30T05:09:40;0.00;;;0.00;;
4186;SDS011;2107;52.306;10.484;2022-09-30T05:12:07;0.00;;;0.00;;
4186;SDS011;2107;52.306;10.484;2022-09-30T05:14:35;0.00;;;0.00;;
4186;SDS011;2107;52.306;10.484;2022-09-30T05:17:02;0.00;;;0.00;;
4186;SDS011;2107;52.306;10.484;2022-09-30T05:19:29;0.00;;;0.00;;
4186;SDS011;2107;52.306;10.484;2022-09-30T05:21:56;0.00;;;0.00;;
4186;SDS011;2107;52.306;10.484;2022-09-30T05:24:23;0.00;;;0.00;;
4186;SDS011;2107;52.306;10.484;2022-09-30T05:26:50;0.00;;;0.00;;
4186;SDS011;2107;52.306;10.484;2022-09-30T05:29:17;0.00;;;0.00;;
4186;SDS011;2107;52.306;10.484;2022-09-30T05:31:45;0.00;;;0.00;;
4186;SDS011;2107;52.306;10.484;2022-09-30T05:34:12;0.00;;;0.00;;
4186;SDS011;2107;52.306;10.484;2022-09-30T05:36:41;0.00;;;0.00;;
4186;SDS011;2107;52.306;10.484;2022-09-30T05:39:08;0.00;;;0.00;;
4186;SDS011;2107;52.306;10.484;2022-09-30T05:41:36;0.00;;;0.00;;
4186;SDS011;2107;52.306;10.484;2022-09-30T05:44:03;0.00;;;0.00;;
4186;SDS011;2107;52.306;10.484;2022-09-30T05:46:32;0.00;;;0.00;;
4186;SDS011;2107;52.306;10.484;2022-09-30T05:49:01;0.00;;;0.00;;
4186;SDS011;2107;52.306;10.484;2022-09-30T05:51:28;0.00;;;0.00;;
4186;SDS011;2107;52.306;10.484;2022-09-30T05:53:55;0.00;;;0.00;;
4186;SDS011;2107;52.306;10.484;2022-09-30T05:56:22;0.00;;;0.00;;
4186;SDS011;2107;52.306;10.484;2022-09-30T05:58:48;0.00;;;0.00;;
4186;SDS011;2107;52.306;10.484;2022-09-30T06:01:15;0.00;;;0.00;;
4186;SDS011;2107;52.306;10.484;2022-09-30T06:03:43;0.00;;;0.00;;
4186;SDS011;2107;52.306;10.484;2022-09-30T06:06:13;0.00;;;0.00;;
4186;SDS011;2107;52.306;10.484;2022-09-30T06:08:41;0.00;;;0.00;;
4186;SDS011;2107;52.306;10.484;2022-09-30T06:11:08;0.00;;;0.00;;
4186;SDS011;2107;52.306;10.484;2022-09-30T06:13:37;0.00;;;0.00;;
4186;SDS011;2107;52.306;10.484;2022-09-30T06:16:05;0.00;;;0.00;;
4186;SDS011;2107;52.306;10.484;2022-09-30T06:18:32;0.10;;;0.10;;
4186;SDS011;2107;52.306;10.484;2022-09-30T06:21:00;0.20;;;0.20;;
4186;SDS011;2107;52.306;10.484;2022-09-30T06:23:31;0.20;;;0.20;;
4186;SDS011;2107;52.306;10.484;2022-09-30T06:25:59;0.30;;;0.30;;
4186;SDS011;2107;52.306;10.484;2022-09-30T06:28:27;0.30;;;0.30;;
4186;SDS011;2107;52.306;10.484;2022-09-30T06:30:54;0.40;;;0.40;;
4186;SDS011;2107;52.306;10.484;2022-09-30T06:33:21;0.40;;;0.40;;
4186;SDS011;2107;52.306;10.484;2022-09-30T06:35:49;0.40;;;0.40;;
4186;SDS011;2107;52.306;10.484;2022-09-30T06:38:16;0.40;;;0.40;;
4186;SDS011;2107;52.306;10.484;2022-09-30T06:40:44;0.40;;;0.40;;
4186;SDS011;2107;52.306;10.484;2022-09-30T06:43:14;0.40;;;0.40;;
4186;SDS011;2107;52.306;10.484;2022-09-30T06:45:41;0.50;;;0.50;;
4186;SDS011;2107;52.306;10.484;2022-09-30T06:48:09;0.40;;;0.40;;
4186;SDS011;2107;52.306;10.484;2022-09-30T06:50:36;0.50;;;0.50;;
4186;SDS011;2107;52.306;10.484;2022-09-30T06:53:04;0.60;;;0.60;;
4186;SDS011;2107;52.306;10.484;2022-09-30T06:55:33;0.50;;;0.50;;
4186;SDS011;2107;52.306;10.484;2022-09-30T06:58:04;0.70;;;0.70;;
4186;SDS011;2107;52.306;10.484;2022-09-30T07:00:32;0.90;;;0.90;;
4186;SDS011;2107;52.306;10.484;2022-09-30T07:02:59;0.80;;;0.80;;
4186;SDS011;2107;52.306;10.484;2022-09-30T07:05:25;0.70;;;0.70;;
4186;SDS011;2107;52.306;10.484;2022-09-30T07:07:52;0.70;;;0.70;;
4186;SDS011;2107;52.306;10.484;2022-09-30T07:10:20;0.60;;;0.60;;
4186;SDS011;2107;52.306;10.484;2022-09-30T07:12:50;0.90;;;0.90;;
4186;SDS011;2107;52.306;10.484;2022-09-30T07:15:19;0.83;;;0.83;;
4186;SDS011;2107;52.306;10.484;2022-09-30T07:17:49;0.90;;;0.90;;
4186;SDS011;2107;52.306;10.484;2022-09-30T07:20:16;0.70;;;0.70;;
4186;SDS011;2107;52.306;10.484;2022-09-30T07:22:43;0.70;;;0.70;;
4186;SDS011;2107;52.306;10.484;2022-09-30T07:25:10;0.80;;;0.80;;
4186;SDS011;2107;52.306;10.484;2022-09-30T07:27:38;0.70;;;0.70;;
4186;SDS011;2107;52.306;10.484;2022-09-30T07:30:05;0.70;;;0.70;;
4186;SDS011;2107;52.306;10.484;2022-09-30T07:32:34;0.60;;;0.60;;
4186;SDS011;2107;52.306;10.484;2022-09-30T07:35:00;0.57;;;0.57;;
4186;SDS011;2107;52.306;10.484;2022-09-30T07:37:27;0.50;;;0.50;;
4186;SDS011;2107;52.306;10.484;2022-09-30T07:40:00;0.60;;;0.60;;
4186;SDS011;2107;52.306;10.484;2022-09-30T07:42:29;0.50;;;0.50;;
4186;SDS011;2107;52.306;10.484;2022-09-30T07:44:56;0.50;;;0.50;;
4186;SDS011;2107;52.306;10.484;2022-09-30T07:47:23;0.60;;;0.60;;
4186;SDS011;2107;52.306;10.484;2022-09-30T07:49:51;0.50;;;0.50;;
4186;SDS011;2107;52.306;10.484;2022-09-30T07:52:18;0.50;;;0.50;;
4186;SDS011;2107;52.306;10.484;2022-09-30T07:54:45;0.60;;;0.60;;
4186;SDS011;2107;52.306;10.484;2022-09-30T07:57:12;0.70;;;0.70;;
4186;SDS011;2107;52.306;10.484;2022-09-30T07:59:39;0.60;;;0.60;;
4186;SDS011;2107;52.306;10.484;2022-09-30T08:02:09;0.60;;;0.60;;
4186;SDS011;2107;52.306;10.484;2022-09-30T08:04:38;0.60;;;0.60;;
4186;SDS011;2107;52.306;10.484;2022-09-30T08:07:07;0.70;;;0.70;;
4186;SDS011;2107;52.306;10.484;2022-09-30T08:09:34;0.50;;;0.50;;
4186;SDS011;2107;52.306;10.484;2022-09-30T08:12:01;0.60;;;0.60;;
4186;SDS011;2107;52.306;10.484;2022-09-30T08:14:28;0.60;;;0.60;;
4186;SDS011;2107;52.306;10.484;2022-09-30T08:16:55;0.70;;;0.70;;
4186;SDS011;2107;52.306;10.484;2022-09-30T08:19:24;0.60;;;0.60;;
4186;SDS011;2107;52.306;10.484;2022-09-30T08:21:53;0.70;;;0.70;;
4186;SDS011;2107;52.306;10.484;2022-09-30T08:24:22;0.60;;;0.60;;
4186;SDS011;2107;52.306;10.484;2022-09-30T08:26:50;0.80;;;0.80;;
4186;SDS011;2107;52.306;10.484;2022-09-30T08:29:17;0.50;;;0.50;;
4186;SDS011;2107;52.306;10.484;2022-09-30T08:31:45;0.57;;;0.57;;
4186;SDS011;2107;52.306;10.484;2022-09-30T08:34:11;0.50;;;0.50;;
4186;SDS011;2107;52.306;10.484;2022-09-30T08:36:39;0.47;;;0.47;;
4186;SDS011;2107;52.306;10.484;2022-09-30T08:39:06;0.40;;;0.40;;
4186;SDS011;2107;52.306;10.484;2022-09-30T08:41:43;0.50;;;0.50;;
4186;SDS011;2107;52.306;10.484;2022-09-30T08:44:36;0.40;;;0.40;;
4186;SDS011;2107;52.306;10.484;2022-09-30T08:47:11;0.40;;;0.40;;
4186;SDS011;2107;52.306;10.484;2022-09-30T08:49:53;0.40;;;0.40;;
4186;SDS011;2107;52.306;10.484;2022-09-30T08:52:30;0.50;;;0.50;;
4186;SDS011;2107;52.306;10.484;2022-09-30T08:55:00;0.50;;;0.50;;
4186;SDS011;2107;52.306;10.484;2022-09-30T08:57:32;0.47;;;0.47;;
4186;SDS011;2107;52.306;10.484;2022-09-30T09:00:03;0.40;;;0.40;;
4186;SDS011;2107;52.306;10.484;2022-09-30T09:02:33;0.50;;;0.50;;
4186;SDS011;2107;52.306;10.484;2022-09-30T09:05:09;0.50;;;0.50;;
4186;SDS011;2107;52.306;10.484;2022-09-30T09:07:46;0.40;;;0.40;;
4186;SDS011;2107;52.306;10.484;2022-09-30T09:10:23;0.40;;;0.40;;
4186;SDS011;2107;52.306;10.484;2022-09-30T09:12:59;0.40;;;0.40;;
4186;SDS011;2107;52.306;10.484;2022-09-30T09:15:41;0.50;;;0.50;;
4186;SDS011;2107;52.306;10.484;2022-09-30T09:18:28;0.40;;;0.40;;
4186;SDS011;2107;52.306;10.484;2022-09-30T09:21:07;0.50;;;0.50;;
4186;SDS011;2107;52.306;10.484;2022-09-30T09:23:45;0.50;;;0.50;;
4186;SDS011;2107;52.306;10.484;2022-09-30T09:26:14;0.60;;;0.60;;
4186;SDS011;2107;52.306;10.484;2022-09-30T09:28:44;0.67;;;0.67;;
4186;SDS011;2107;52.306;10.484;2022-09-30T09:31:22;0.70;;;0.70;;
4186;SDS011;2107;52.306;10.484;2022-09-30T09:33:50;0.80;;;0.80;;
4186;SDS011;2107;52.306;10.484;2022-09-30T09:36:21;0.60;;;0.60;;
4186;SDS011;2107;52.306;10.484;2022-09-30T09:39:00;0.50;;;0.50;;
4186;SDS011;2107;52.306;10.484;2022-09-30T09:41:41;0.60;;;0.60;;
4186;SDS011;2107;52.306;10.484;2022-09-30T09:44:16;0.53;;;0.53;;
4186;SDS011;2107;52.306;10.484;2022-09-30T09:46:51;0.57;;;0.57;;
4186;SDS011;2107;52.306;10.484;2022-09-30T09:49:27;0.70;;;0.70;;
4186;SDS011;2107;52.306;10.484;2022-09-30T09:55:04;0.70;;;0.70;;
4186;SDS011;2107;52.306;10.484;2022-09-30T09:57:35;0.80;;;0.80;;
4186;SDS011;2107;52.306;10.484;2022-09-30T10:00:06;0.80;;;0.80;;
4186;SDS011;2107;52.306;10.484;2022-09-30T10:03:01;0.70;;;0.70;;
4186;SDS011;2107;52.306;10.484;2022-09-30T10:05:31;0.50;;;0.50;;
4186;SDS011;2107;52.306;10.484;2022-09-30T10:08:11;0.53;;;0.53;;
4186;SDS011;2107;52.306;10.484;2022-09-30T10:10:42;0.57;;;0.57;;
4186;SDS011;2107;52.306;10.484;2022-09-30T10:13:14;0.80;;;0.80;;
4186;SDS011;2107;52.306;10.484;2022-09-30T10:15:43;0.60;;;0.60;;
4186;SDS011;2107;52.306;10.484;2022-09-30T10:18:15;0.73;;;0.73;;
4186;SDS011;2107;52.306;10.484;2022-09-30T10:20:49;0.60;;;0.60;;
4186;SDS011;2107;52.306;10.484;2022-09-30T10:23:19;0.50;;;0.50;;
4186;SDS011;2107;52.306;10.484;2022-09-30T10:25:58;0.53;;;0.53;;
4186;SDS011;2107;52.306;10.484;2022-09-30T10:28:29;0.50;;;0.50;;
4186;SDS011;2107;52.306;10.484;2022-09-30T10:30:59;0.70;;;0.70;;
4186;SDS011;2107;52.306;10.484;2022-09-30T10:33:29;0.60;;;0.60;;
4186;SDS011;2107;52.306;10.484;2022-09-30T10:36:04;0.50;;;0.50;;
4186;SDS011;2107;52.306;10.484;2022-09-30T10:38:34;0.40;;;0.40;;
4186;SDS011;2107;52.306;10.484;2022-09-30T10:41:09;0.90;;;0.90;;
4186;SDS011;2107;52.306;10.484;2022-09-30T10:43:38;0.50;;;0.50;;
4186;SDS011;2107;52.306;10.484;2022-09-30T10:46:10;0.70;;;0.70;;
4186;SDS011;2107;52.306;10.484;2022-09-30T10:48:37;0.60;;;0.60;;
4186;SDS011;2107;52.306;10.484;2022-09-30T10:51:14;0.60;;;0.60;;
4186;SDS011;2107;52.306;10.484;2022-09-30T10:53:49;0.30;;;0.30;;
4186;SDS011;2107;52.306;10.484;2022-09-30T10:56:30;0.30;;;0.30;;
4186;SDS011;2107;52.306;10.484;2022-09-30T10:59:06;0.20;;;0.20;;
4186;SDS011;2107;52.306;10.484;2022-09-30T11:01:44;0.40;;;0.40;;
4186;SDS011;2107;52.306;10.484;2022-09-30T11:04:17;0.30;;;0.30;;
4186;SDS011;2107;52.306;10.484;2022-09-30T11:06:52;0.20;;;0.20;;
4186;SDS011;2107;52.306;10.484;2022-09-30T11:09:25;0.30;;;0.30;;
4186;SDS011;2107;52.306;10.484;2022-09-30T11:12:02;0.40;;;0.40;;
4186;SDS011;2107;52.306;10.484;2022-09-30T11:14:37;0.40;;;0.40;;
4186;SDS011;2107;52.306;10.484;2022-09-30T11:17:14;0.33;;;0.33;;
4186;SDS011;2107;52.306;10.484;2022-09-30T11:19:52;0.40;;;0.40;;
4186;SDS011;2107;52.306;10.484;2022-09-30T11:22:31;0.50;;;0.50;;
4186;SDS011;2107;52.306;10.484;2022-09-30T11:25:02;0.30;;;0.30;;
4186;SDS011;2107;52.306;10.484;2022-09-30T11:27:33;0.40;;;0.40;;
4186;SDS011;2107;52.306;10.484;2022-09-30T11:30:15;0.93;;;0.93;;
4186;SDS011;2107;52.306;10.484;2022-09-30T11:32:51;0.50;;;0.50;;
4186;SDS011;2107;52.306;10.484;2022-09-30T11:35:30;0.50;;;0.50;;
4186;SDS011;2107;52.306;10.484;2022-09-30T11:38:08;0.40;;;0.40;;
4186;SDS011;2107;52.306;10.484;2022-09-30T11:40:48;0.50;;;0.50;;
4186;SDS011;2107;52.306;10.484;2022-09-30T11:43:27;0.70;;;0.70;;
4186;SDS011;2107;52.306;10.484;2022-09-30T11:46:07;0.40;;;0.40;;
4186;SDS011;2107;52.306;10.484;2022-09-30T11:49:04;0.67;;;0.67;;
4186;SDS011;2107;52.306;10.484;2022-09-30T11:51:43;0.60;;;0.60;;
4186;SDS011;2107;52.306;10.484;2022-09-30T11:54:21;0.70;;;0.70;;
4186;SDS011;2107;52.306;10.484;2022-09-30T11:57:04;0.60;;;0.60;;
4186;SDS011;2107;52.306;10.484;2022-09-30T11:59:37;0.70;;;0.70;;
4186;SDS011;2107;52.306;10.484;2022-09-30T12:02:12;0.70;;;0.70;;
4186;SDS011;2107;52.306;10.484;2022-09-30T12:04:49;0.50;;;0.50;;
4186;SDS011;2107;52.306;10.484;2022-09-30T12:07:22;0.53;;;0.53;;
4186;SDS011;2107;52.306;10.484;2022-09-30T12:09:58;0.50;;;0.50;;
4186;SDS011;2107;52.306;10.484;2022-09-30T12:12:28;0.70;;;0.70;;
4186;SDS011;2107;52.306;10.484;2022-09-30T12:14:56;0.53;;;0.53;;
4186;SDS011;2107;52.306;10.484;2022-09-30T12:17:27;0.50;;;0.50;;
4186;SDS011;2107;52.306;10.484;2022-09-30T12:20:02;0.70;;;0.70;;
4186;SDS011;2107;52.306;10.484;2022-09-30T12:22:35;0.40;;;0.40;;
4186;SDS011;2107;52.306;10.484;2022-09-30T12:25:09;0.40;;;0.40;;
4186;SDS011;2107;52.306;10.484;2022-09-30T12:27:41;0.50;;;0.50;;
4186;SDS011;2107;52.306;10.484;2022-09-30T12:30:12;0.40;;;0.40;;
4186;SDS011;2107;52.306;10.484;2022-09-30T12:35:54;0.50;;;0.50;;
4186;SDS011;2107;52.306;10.484;2022-09-30T12:41:58;0.50;;;0.50;;
4186;SDS011;2107;52.306;10.484;2022-09-30T12:44:40;0.60;;;0.60;;
4186;SDS011;2107;52.306;10.484;2022-09-30T12:47:31;0.57;;;0.57;;
4186;SDS011;2107;52.306;10.484;2022-09-30T12:50:03;0.80;;;0.80;;
4186;SDS011;2107;52.306;10.484;2022-09-30T12:52:36;0.70;;;0.70;;
4186;SDS011;2107;52.306;10.484;2022-09-30T12:55:05;0.50;;;0.50;;
4186;SDS011;2107;52.306;10.484;2022-09-30T12:57:38;0.60;;;0.60;;
4186;SDS011;2107;52.306;10.484;2022-09-30T13:00:13;0.87;;;0.87;;
4186;SDS011;2107;52.306;10.484;2022-09-30T13:02:42;0.57;;;0.57;;
4186;SDS011;2107;52.306;10.484;2022-09-30T13:08:40;0.70;;;0.70;;
4186;SDS011;2107;52.306;10.484;2022-09-30T13:14:18;0.70;;;0.70;;
4186;SDS011;2107;52.306;10.484;2022-09-30T13:20:00;0.60;;;0.60;;
4186;SDS011;2107;52.306;10.484;2022-09-30T13:25:25;0.40;;;0.40;;
4186;SDS011;2107;52.306;10.484;2022-09-30T13:28:26;0.60;;;0.60;;
4186;SDS011;2107;52.306;10.484;2022-09-30T13:31:12;0.50;;;0.50;;
4186;SDS011;2107;52.306;10.484;2022-09-30T13:33:43;0.60;;;0.60;;
4186;SDS011;2107;52.306;10.484;2022-09-30T13:36:24;0.50;;;0.50;;
4186;SDS011;2107;52.306;10.484;2022-09-30T13:41:45;0.50;;;0.50;;
4186;SDS011;2107;52.306;10.484;2022-09-30T13:44:18;0.70;;;0.70;;
4186;SDS011;2107;52.306;10.484;2022-09-30T13:46:51;0.70;;;0.70;;
4186;SDS011;2107;52.306;10.484;2022-09-30T13:49:22;0.60;;;0.60;;
4186;SDS011;2107;52.306;10.484;2022-09-30T13:51:57;0.70;;;0.70;;
4186;SDS011;2107;52.306;10.484;2022-09-30T13:54:25;0.80;;;0.80;;
4186;SDS011;2107;52.306;10.484;2022-09-30T13:56:59;0.60;;;0.60;;
4186;SDS011;2107;52.306;10.484;2022-09-30T13:59:30;0.60;;;0.60;;
4186;SDS011;2107;52.306;10.484;2022-09-30T14:05:17;0.70;;;0.70;;
4186;SDS011;2107;52.306;10.484;2022-09-30T14:08:15;0.70;;;0.70;;
4186;SDS011;2107;52.306;10.484;2022-09-30T14:11:16;0.80;;;0.80;;
4186;SDS011;2107;52.306;10.484;2022-09-30T14:13:56;0.70;;;0.70;;
4186;SDS011;2107;52.306;10.484;2022-09-30T14:16:39;0.97;;;0.97;;
4186;SDS011;2107;52.306;10.484;2022-09-30T14:19:37;0.70;;;0.70;;
4186;SDS011;2107;52.306;10.484;2022-09-30T14:22:18;0.77;;;0.77;;
4186;SDS011;2107;52.306;10.484;2022-09-30T14:24:49;0.90;;;0.90;;
4186;SDS011;2107;52.306;10.484;2022-09-30T14:27:20;1.00;;;1.00;;
4186;SDS011;2107;52.306;10.484;2022-09-30T14:30:08;0.90;;;0.90;;
4186;SDS011;2107;52.306;10.484;2022-09-30T14:32:41;0.80;;;0.80;;
4186;SDS011;2107;52.306;10.484;2022-09-30T14:35:14;0.80;;;0.80;;
4186;SDS011;2107;52.306;10.484;2022-09-30T14:37:44;0.90;;;0.90;;
4186;SDS011;2107;52.306;10.484;2022-09-30T14:40:15;1.00;;;1.00;;
4186;SDS011;2107;52.306;10.484;2022-09-30T14:42:44;0.90;;;0.90;;
4186;SDS011;2107;52.306;10.484;2022-09-30T14:45:20;1.03;;;1.03;;
4186;SDS011;2107;52.306;10.484;2022-09-30T14:47:52;0.90;;;0.90;;
4186;SDS011;2107;52.306;10.484;2022-09-30T14:50:21;0.90;;;0.90;;
4186;SDS011;2107;52.306;10.484;2022-09-30T14:52:51;0.93;;;0.93;;
4186;SDS011;2107;52.306;10.484;2022-09-30T14:55:23;1.10;;;1.10;;
4186;SDS011;2107;52.306;10.484;2022-09-30T14:57:51;1.00;;;1.00;;
4186;SDS011;2107;52.306;10.484;2022-09-30T15:00:29;1.10;;;1.10;;
4186;SDS011;2107;52.306;10.484;2022-09-30T15:03:00;1.00;;;1.00;;
4186;SDS011;2107;52.306;10.484;2022-09-30T15:05:27;1.30;;;1.30;;
4186;SDS011;2107;52.306;10.484;2022-09-30T15:07:54;1.20;;;1.20;;
4186;SDS011;2107;52.306;10.484;2022-09-30T15:10:22;1.00;;;1.00;;
4186;SDS011;2107;52.306;10.484;2022-09-30T15:12:50;0.80;;;0.80;;
4186;SDS011;2107;52.306;10.484;2022-09-30T15:15:31;1.20;;;1.20;;
4186;SDS011;2107;52.306;10.484;2022-09-30T15:20:48;1.10;;;1.10;;
4186;SDS011;2107;52.306;10.484;2022-09-30T15:23:18;1.10;;;1.10;;
4186;SDS011;2107;52.306;10.484;2022-09-30T15:25:49;0.90;;;0.90;;
4186;SDS011;2107;52.306;10.484;2022-09-30T15:28:17;1.20;;;1.20;;
4186;SDS011;2107;52.306;10.484;2022-09-30T15:30:45;1.00;;;1.00;;
4186;SDS011;2107;52.306;10.484;2022-09-30T15:33:16;0.70;;;0.70;;
4186;SDS011;2107;52.306;10.484;2022-09-30T15:35:47;1.00;;;1.00;;
4186;SDS011;2107;52.306;10.484;2022-09-30T15:38:17;0.90;;;0.90;;
4186;SDS011;2107;52.306;10.484;2022-09-30T15:40:47;0.90;;;0.90;;
4186;SDS011;2107;52.306;10.484;2022-09-30T15:43:31;1.00;;;1.00;;
4186;SDS011;2107;52.306;10.484;2022-09-30T15:49:02;0.93;;;0.93;;
4186;SDS011;2107;52.306;10.484;2022-09-30T15:51:32;1.10;;;1.10;;
4186;SDS011;2107;52.306;10.484;2022-09-30T15:54:03;1.20;;;1.20;;
4186;SDS011;2107;52.306;10.484;2022-09-30T15:56:59;0.73;;;0.73;;
4186;SDS011;2107;52.306;10.484;2022-09-30T16:02:27;0.80;;;0.80;;
4186;SDS011;2107;52.306;10.484;2022-09-30T16:04:56;1.20;;;1.20;;
4186;SDS011;2107;52.306;10.484;2022-09-30T16:07:26;1.30;;;1.30;;
4186;SDS011;2107;52.306;10.484;2022-09-30T16:09:54;1.30;;;1.30;;
4186;SDS011;2107;52.306;10.484;2022-09-30T16:12:24;1.30;;;1.30;;
4186;SDS011;2107;52.306;10.484;2022-09-30T16:14:53;0.90;;;0.90;;
4186;SDS011;2107;52.306;10.484;2022-09-30T16:17:27;1.00;;;1.00;;